sensor_id;sensor_type;location;lat;lon;timestamp;temperature;humidity
83098;DHT22;72971;47.204;8.582;2023-10-31T00:03:21;21.50;50.20
83098;DHT22;72971;47.204;8.582;2023-10-31T00:08:24;21.50;50.30
83098;DHT22;72971;47.204;8.582;2023-10-31T00:13:26;21.50;50.20
83098;DHT22;72971;47.204;8.582;2023-10-31T00:18:29;21.50;50.20
83098;DHT22;72971;47.204;8.582;2023-10-31T00:23:31;21.50;50.20
83098;DHT22;72971;47.204;8.582;2023-10-31T00:28:34;21.50;50.20
83098;DHT22;72971;47.204;8.582;2023-10-31T00:33:37;21.50;50.20
83098;DHT22;72971;47.204;8.582;2023-10-31T00:38:39;21.50;50.10
83098;DHT22;72971;47.204;8.582;2023-10-31T00:43:42;21.50;50.20
83098;DHT22;72971;47.204;8.582;2023-10-31T00:48:44;21.50;50.20
83098;DHT22;72971;47.204;8.582;2023-10-31T00:53:47;21.50;50.20
83098;DHT22;72971;47.204;8.582;2023-10-31T00:58:49;21.40;50.10
83098;DHT22;72971;47.204;8.582;2023-10-31T01:03:52;21.50;50.20
83098;DHT22;72971;47.204;8.582;2023-10-31T01:08:54;21.40;49.90
83098;DHT22;72971;47.204;8.582;2023-10-31T01:13:57;21.40;50.10
83098;DHT22;72971;47.204;8.582;2023-10-31T01:18:59;21.40;50.10
83098;DHT22;72971;47.204;8.582;2023-10-31T01:24:02;21.40;50.10
83098;DHT22;72971;47.204;8.582;2023-10-31T01:29:05;21.40;50.10
83098;DHT22;72971;47.204;8.582;2023-10-31T01:34:07;21.40;50.80
83098;DHT22;72971;47.204;8.582;2023-10-31T01:39:10;21.40;50.10
83098;DHT22;72971;47.204;8.582;2023-10-31T01:44:12;21.40;50.10
83098;DHT22;72971;47.204;8.582;2023-10-31T01:49:15;21.40;50.00
83098;DHT22;72971;47.204;8.582;2023-10-31T01:54:18;21.40;50.00
83098;DHT22;72971;47.204;8.582;2023-10-31T01:59:21;21.30;49.90
83098;DHT22;72971;47.204;8.582;2023-10-31T02:04:26;21.40;50.00
83098;DHT22;72971;47.204;8.582;2023-10-31T02:09:29;21.30;50.00
83098;DHT22;72971;47.204;8.582;2023-10-31T02:14:32;21.30;50.00
83098;DHT22;72971;47.204;8.582;2023-10-31T02:19:35;21.30;50.00
83098;DHT22;72971;47.204;8.582;2023-10-31T02:24:37;21.30;50.00
83098;DHT22;72971;47.204;8.582;2023-10-31T02:29:40;21.30;49.90
83098;DHT22;72971;47.204;8.582;2023-10-31T02:34:45;21.30;49.90
83098;DHT22;72971;47.204;8.582;2023-10-31T02:39:47;21.30;50.00
83098;DHT22;72971;47.204;8.582;2023-10-31T02:44:50;21.30;50.00
83098;DHT22;72971;47.204;8.582;2023-10-31T02:49:52;21.30;50.20
83098;DHT22;72971;47.204;8.582;2023-10-31T02:54:55;21.30;50.00
83098;DHT22;72971;47.204;8.582;2023-10-31T02:59:57;21.30;50.00
83098;DHT22;72971;47.204;8.582;2023-10-31T03:05:00;21.20;49.90
83098;DHT22;72971;47.204;8.582;2023-10-31T03:10:04;21.30;50.00
83098;DHT22;72971;47.204;8.582;2023-10-31T03:15:07;21.20;50.00
83098;DHT22;72971;47.204;8.582;2023-10-31T03:20:11;21.30;50.00
83098;DHT22;72971;47.204;8.582;2023-10-31T03:25:13;21.30;50.00
83098;DHT22;72971;47.204;8.582;2023-10-31T03:30:16;21.20;49.90
83098;DHT22;72971;47.204;8.582;2023-10-31T03:35:18;21.20;49.90
83098;DHT22;72971;47.204;8.582;2023-10-31T03:40:21;21.20;49.90
83098;DHT22;72971;47.204;8.582;2023-10-31T03:45:23;21.20;49.90
83098;DHT22;72971;47.204;8.582;2023-10-31T03:50:26;21.20;49.90
83098;DHT22;72971;47.204;8.582;2023-10-31T03:55:28;21.20;50.00
83098;DHT22;72971;47.204;8.582;2023-10-31T04:00:32;21.20;49.90
83098;DHT22;72971;47.204;8.582;2023-10-31T04:05:35;21.30;50.10
83098;DHT22;72971;47.204;8.582;2023-10-31T04:10:37;21.20;49.90
83098;DHT22;72971;47.204;8.582;2023-10-31T04:15:40;21.20;49.90
83098;DHT22;72971;47.204;8.582;2023-10-31T04:20:42;21.20;49.90
83098;DHT22;72971;47.204;8.582;2023-10-31T04:25:45;21.20;49.90
83098;DHT22;72971;47.204;8.582;2023-10-31T04:30:48;21.20;50.00
83098;DHT22;72971;47.204;8.582;2023-10-31T04:35:50;21.20;49.90
83098;DHT22;72971;47.204;8.582;2023-10-31T04:40:53;21.20;49.90
83098;DHT22;72971;47.204;8.582;2023-10-31T04:45:55;21.20;50.50
83098;DHT22;72971;47.204;8.582;2023-10-31T04:50:58;21.20;50.00
83098;DHT22;72971;47.204;8.582;2023-10-31T04:56:01;21.20;50.00
83098;DHT22;72971;47.204;8.582;2023-10-31T05:01:07;21.20;49.90
83098;DHT22;72971;47.204;8.582;2023-10-31T05:06:08;21.20;49.90
83098;DHT22;72971;47.204;8.582;2023-10-31T05:11:10;21.20;49.90
83098;DHT22;72971;47.204;8.582;2023-10-31T05:16:13;21.20;50.00
83098;DHT22;72971;47.204;8.582;2023-10-31T05:21:19;21.20;49.90
83098;DHT22;72971;47.204;8.582;2023-10-31T05:26:22;21.20;49.90
83098;DHT22;72971;47.204;8.582;2023-10-31T05:31:25;21.20;49.90
83098;DHT22;72971;47.204;8.582;2023-10-31T05:36:27;21.20;49.90
83098;DHT22;72971;47.204;8.582;2023-10-31T05:41:30;21.20;49.90
83098;DHT22;72971;47.204;8.582;2023-10-31T05:46:38;21.20;49.90
83098;DHT22;72971;47.204;8.582;2023-10-31T05:51:41;21.20;49.90
83098;DHT22;72971;47.204;8.582;2023-10-31T05:56:44;21.20;49.90
83098;DHT22;72971;47.204;8.582;2023-10-31T06:01:47;21.20;49.90
83098;DHT22;72971;47.204;8.582;2023-10-31T06:06:51;21.20;49.90
83098;DHT22;72971;47.204;8.582;2023-10-31T06:11:54;21.20;49.90
83098;DHT22;72971;47.204;8.582;2023-10-31T06:16:56;21.20;49.80
83098;DHT22;72971;47.204;8.582;2023-10-31T06:22:01;21.20;49.90
83098;DHT22;72971;47.204;8.582;2023-10-31T06:27:03;21.20;49.90
83098;DHT22;72971;47.204;8.582;2023-10-31T06:32:06;21.20;49.80
83098;DHT22;72971;47.204;8.582;2023-10-31T06:37:09;21.20;49.90
83098;DHT22;72971;47.204;8.582;2023-10-31T06:42:11;21.20;49.90
83098;DHT22;72971;47.204;8.582;2023-10-31T06:47:14;21.20;49.90
83098;DHT22;72971;47.204;8.582;2023-10-31T06:52:16;21.20;49.90
83098;DHT22;72971;47.204;8.582;2023-10-31T06:57:19;21.20;49.90
83098;DHT22;72971;47.204;8.582;2023-10-31T07:02:22;21.20;49.80
83098;DHT22;72971;47.204;8.582;2023-10-31T07:07:24;21.20;49.90
83098;DHT22;72971;47.204;8.582;2023-10-31T07:12:27;21.20;49.60
83098;DHT22;72971;47.204;8.582;2023-10-31T07:17:30;21.20;49.90
83098;DHT22;72971;47.204;8.582;2023-10-31T07:22:33;21.20;49.80
83098;DHT22;72971;47.204;8.582;2023-10-31T07:27:36;21.20;49.90
83098;DHT22;72971;47.204;8.582;2023-10-31T07:32:38;21.20;49.80
83098;DHT22;72971;47.204;8.582;2023-10-31T07:37:41;21.20;49.90
83098;DHT22;72971;47.204;8.582;2023-10-31T07:42:43;21.20;49.90
83098;DHT22;72971;47.204;8.582;2023-10-31T07:47:46;21.20;49.80
83098;DHT22;72971;47.204;8.582;2023-10-31T07:52:48;21.20;49.80
83098;DHT22;72971;47.204;8.582;2023-10-31T07:57:51;21.20;49.80
83098;DHT22;72971;47.204;8.582;2023-10-31T08:02:54;21.20;49.80
83098;DHT22;72971;47.204;8.582;2023-10-31T08:07:57;21.20;49.80
83098;DHT22;72971;47.204;8.582;2023-10-31T08:13:00;21.20;49.80
83098;DHT22;72971;47.204;8.582;2023-10-31T08:18:02;21.20;49.90
83098;DHT22;72971;47.204;8.582;2023-10-31T08:23:05;21.20;49.80
83098;DHT22;72971;47.204;8.582;2023-10-31T08:28:07;21.20;49.70
83098;DHT22;72971;47.204;8.582;2023-10-31T08:33:10;21.20;49.80
83098;DHT22;72971;47.204;8.582;2023-10-31T08:38:12;21.20;49.70
83098;DHT22;72971;47.204;8.582;2023-10-31T08:43:15;21.20;49.70
83098;DHT22;72971;47.204;8.582;2023-10-31T08:48:17;21.20;49.80
83098;DHT22;72971;47.204;8.582;2023-10-31T08:53:20;21.20;49.70
83098;DHT22;72971;47.204;8.582;2023-10-31T08:58:22;21.20;49.70
83098;DHT22;72971;47.204;8.582;2023-10-31T09:03:25;21.20;49.70
83098;DHT22;72971;47.204;8.582;2023-10-31T09:08:27;21.20;49.60
83098;DHT22;72971;47.204;8.582;2023-10-31T09:13:30;21.20;49.70
83098;DHT22;72971;47.204;8.582;2023-10-31T09:18:33;21.30;49.90
83098;DHT22;72971;47.204;8.582;2023-10-31T09:23:36;21.30;49.90
83098;DHT22;72971;47.204;8.582;2023-10-31T09:28:38;21.40;49.90
83098;DHT22;72971;47.204;8.582;2023-10-31T09:33:43;21.40;49.90
83098;DHT22;72971;47.204;8.582;2023-10-31T09:38:45;21.40;49.90
83098;DHT22;72971;47.204;8.582;2023-10-31T09:43:48;21.40;49.90
83098;DHT22;72971;47.204;8.582;2023-10-31T09:48:51;21.50;50.00
83098;DHT22;72971;47.204;8.582;2023-10-31T09:53:55;21.50;50.10
83098;DHT22;72971;47.204;8.582;2023-10-31T09:59:00;21.50;50.70
83098;DHT22;72971;47.204;8.582;2023-10-31T10:04:02;21.60;50.60
83098;DHT22;72971;47.204;8.582;2023-10-31T10:09:05;21.60;50.90
83098;DHT22;72971;47.204;8.582;2023-10-31T10:14:11;21.60;51.10
83098;DHT22;72971;47.204;8.582;2023-10-31T10:19:16;21.60;51.00
83098;DHT22;72971;47.204;8.582;2023-10-31T10:24:21;21.60;51.00
83098;DHT22;72971;47.204;8.582;2023-10-31T10:29:24;21.60;51.20
83098;DHT22;72971;47.204;8.582;2023-10-31T10:34:28;21.60;51.30
83098;DHT22;72971;47.204;8.582;2023-10-31T10:39:32;21.60;51.00
83098;DHT22;72971;47.204;8.582;2023-10-31T10:44:37;21.70;50.80
83098;DHT22;72971;47.204;8.582;2023-10-31T10:49:42;21.60;50.70
83098;DHT22;72971;47.204;8.582;2023-10-31T10:55:03;21.60;50.70
83098;DHT22;72971;47.204;8.582;2023-10-31T11:00:06;21.70;50.80
83098;DHT22;72971;47.204;8.582;2023-10-31T11:05:10;21.60;50.70
83098;DHT22;72971;47.204;8.582;2023-10-31T11:10:13;21.60;50.90
83098;DHT22;72971;47.204;8.582;2023-10-31T11:15:18;21.70;50.90
83098;DHT22;72971;47.204;8.582;2023-10-31T11:20:21;21.70;50.90
83098;DHT22;72971;47.204;8.582;2023-10-31T11:25:24;21.70;51.40
83098;DHT22;72971;47.204;8.582;2023-10-31T11:30:34;21.70;51.00
83098;DHT22;72971;47.204;8.582;2023-10-31T11:35:38;21.70;51.00
83098;DHT22;72971;47.204;8.582;2023-10-31T11:45:52;21.70;50.90
83098;DHT22;72971;47.204;8.582;2023-10-31T11:50:57;21.70;50.90
83098;DHT22;72971;47.204;8.582;2023-10-31T11:56:00;21.70;50.80
83098;DHT22;72971;47.204;8.582;2023-10-31T12:01:05;21.70;51.40
83098;DHT22;72971;47.204;8.582;2023-10-31T12:06:10;21.70;50.80
83098;DHT22;72971;47.204;8.582;2023-10-31T12:11:15;21.70;50.80
83098;DHT22;72971;47.204;8.582;2023-10-31T12:16:18;21.70;50.80
83098;DHT22;72971;47.204;8.582;2023-10-31T12:21:41;21.70;50.80
83098;DHT22;72971;47.204;8.582;2023-10-31T12:26:45;21.70;50.70
83098;DHT22;72971;47.204;8.582;2023-10-31T12:31:49;21.70;50.80
83098;DHT22;72971;47.204;8.582;2023-10-31T12:36:54;21.70;50.70
83098;DHT22;72971;47.204;8.582;2023-10-31T12:41:58;21.70;50.80
83098;DHT22;72971;47.204;8.582;2023-10-31T12:47:01;21.70;51.00
83098;DHT22;72971;47.204;8.582;2023-10-31T12:52:05;21.70;51.10
83098;DHT22;72971;47.204;8.582;2023-10-31T12:57:09;21.70;51.10
83098;DHT22;72971;47.204;8.582;2023-10-31T13:02:16;21.80;51.10
83098;DHT22;72971;47.204;8.582;2023-10-31T13:07:26;21.80;51.10
83098;DHT22;72971;47.204;8.582;2023-10-31T13:12:25;21.80;51.70
83098;DHT22;72971;47.204;8.582;2023-10-31T13:17:29;21.80;51.10
83098;DHT22;72971;47.204;8.582;2023-10-31T13:22:33;21.80;51.40
83098;DHT22;72971;47.204;8.582;2023-10-31T13:27:37;21.80;50.90
83098;DHT22;72971;47.204;8.582;2023-10-31T13:32:41;21.80;50.80
83098;DHT22;72971;47.204;8.582;2023-10-31T13:37:44;21.90;51.00
83098;DHT22;72971;47.204;8.582;2023-10-31T13:42:46;21.90;51.10
83098;DHT22;72971;47.204;8.582;2023-10-31T13:47:49;21.90;50.90
83098;DHT22;72971;47.204;8.582;2023-10-31T13:52:51;21.90;51.10
83098;DHT22;72971;47.204;8.582;2023-10-31T13:57:54;21.90;51.20
83098;DHT22;72971;47.204;8.582;2023-10-31T14:02:57;21.80;51.20
83098;DHT22;72971;47.204;8.582;2023-10-31T14:07:59;21.90;51.50
83098;DHT22;72971;47.204;8.582;2023-10-31T14:13:02;21.90;51.30
83098;DHT22;72971;47.204;8.582;2023-10-31T14:18:04;21.90;51.10
83098;DHT22;72971;47.204;8.582;2023-10-31T14:23:07;21.90;50.90
83098;DHT22;72971;47.204;8.582;2023-10-31T14:28:09;21.90;51.00
83098;DHT22;72971;47.204;8.582;2023-10-31T14:33:12;21.90;50.60
83098;DHT22;72971;47.204;8.582;2023-10-31T14:38:15;21.90;50.90
83098;DHT22;72971;47.204;8.582;2023-10-31T14:43:17;21.90;50.90
83098;DHT22;72971;47.204;8.582;2023-10-31T14:48:21;21.90;50.90
83098;DHT22;72971;47.204;8.582;2023-10-31T14:53:23;22.00;51.00
83098;DHT22;72971;47.204;8.582;2023-10-31T14:58:26;21.90;50.80
83098;DHT22;72971;47.204;8.582;2023-10-31T15:03:30;21.90;50.70
83098;DHT22;72971;47.204;8.582;2023-10-31T15:08:33;21.90;50.70
83098;DHT22;72971;47.204;8.582;2023-10-31T15:13:36;21.80;50.60
83098;DHT22;72971;47.204;8.582;2023-10-31T15:18:38;21.90;50.70
83098;DHT22;72971;47.204;8.582;2023-10-31T15:23:41;21.80;50.70
83098;DHT22;72971;47.204;8.582;2023-10-31T15:28:43;21.80;50.70
83098;DHT22;72971;47.204;8.582;2023-10-31T15:33:46;21.80;50.70
83098;DHT22;72971;47.204;8.582;2023-10-31T15:38:49;21.80;50.70
83098;DHT22;72971;47.204;8.582;2023-10-31T15:43:52;21.80;50.70
83098;DHT22;72971;47.204;8.582;2023-10-31T15:48:55;21.70;50.60
83098;DHT22;72971;47.204;8.582;2023-10-31T15:53:59;21.70;50.60
83098;DHT22;72971;47.204;8.582;2023-10-31T15:59:01;21.70;50.60
83098;DHT22;72971;47.204;8.582;2023-10-31T16:04:04;21.70;50.60
83098;DHT22;72971;47.204;8.582;2023-10-31T16:09:07;21.70;50.60
83098;DHT22;72971;47.204;8.582;2023-10-31T16:14:10;21.70;50.50
83098;DHT22;72971;47.204;8.582;2023-10-31T16:19:13;21.70;50.40
83098;DHT22;72971;47.204;8.582;2023-10-31T16:24:15;21.60;50.30
83098;DHT22;72971;47.204;8.582;2023-10-31T16:29:19;21.60;50.20
83098;DHT22;72971;47.204;8.582;2023-10-31T16:34:22;21.60;50.30
83098;DHT22;72971;47.204;8.582;2023-10-31T16:39:25;21.60;50.30
83098;DHT22;72971;47.204;8.582;2023-10-31T16:44:28;21.60;51.00
83098;DHT22;72971;47.204;8.582;2023-10-31T16:49:30;21.60;50.30
83098;DHT22;72971;47.204;8.582;2023-10-31T16:54:34;21.60;50.30
83098;DHT22;72971;47.204;8.582;2023-10-31T16:59:36;21.60;50.30
83098;DHT22;72971;47.204;8.582;2023-10-31T17:04:39;21.50;50.20
83098;DHT22;72971;47.204;8.582;2023-10-31T17:09:41;21.60;50.30
83098;DHT22;72971;47.204;8.582;2023-10-31T17:14:44;21.50;50.30
83098;DHT22;72971;47.204;8.582;2023-10-31T17:19:46;21.50;50.20
83098;DHT22;72971;47.204;8.582;2023-10-31T17:24:49;21.50;50.20
83098;DHT22;72971;47.204;8.582;2023-10-31T17:29:52;21.50;50.30
83098;DHT22;72971;47.204;8.582;2023-10-31T17:34:54;21.50;50.20
83098;DHT22;72971;47.204;8.582;2023-10-31T17:39:57;21.50;50.20
83098;DHT22;72971;47.204;8.582;2023-10-31T17:45:00;21.50;50.20
83098;DHT22;72971;47.204;8.582;2023-10-31T17:50:04;21.50;50.20
83098;DHT22;72971;47.204;8.582;2023-10-31T17:55:08;21.50;50.20
83098;DHT22;72971;47.204;8.582;2023-10-31T18:00:11;21.50;50.30
83098;DHT22;72971;47.204;8.582;2023-10-31T18:05:14;21.50;50.20
83098;DHT22;72971;47.204;8.582;2023-10-31T18:10:18;21.50;50.20
83098;DHT22;72971;47.204;8.582;2023-10-31T18:15:20;21.50;50.30
83098;DHT22;72971;47.204;8.582;2023-10-31T18:20:23;21.50;50.30
83098;DHT22;72971;47.204;8.582;2023-10-31T18:25:26;21.50;50.30
83098;DHT22;72971;47.204;8.582;2023-10-31T18:30:29;21.50;50.20
83098;DHT22;72971;47.204;8.582;2023-10-31T18:35:31;21.50;50.30
83098;DHT22;72971;47.204;8.582;2023-10-31T18:40:34;21.50;50.30
83098;DHT22;72971;47.204;8.582;2023-10-31T18:45:36;21.50;50.30
83098;DHT22;72971;47.204;8.582;2023-10-31T18:50:39;21.50;50.20
83098;DHT22;72971;47.204;8.582;2023-10-31T18:55:42;21.40;50.10
83098;DHT22;72971;47.204;8.582;2023-10-31T19:00:45;21.40;50.10
83098;DHT22;72971;47.204;8.582;2023-10-31T19:05:48;21.40;50.20
83098;DHT22;72971;47.204;8.582;2023-10-31T19:10:50;21.50;50.20
83098;DHT22;72971;47.204;8.582;2023-10-31T19:15:55;21.40;50.10
83098;DHT22;72971;47.204;8.582;2023-10-31T19:20:57;21.50;50.20
83098;DHT22;72971;47.204;8.582;2023-10-31T19:26:00;21.50;50.10
83098;DHT22;72971;47.204;8.582;2023-10-31T19:31:03;21.50;50.10
83098;DHT22;72971;47.204;8.582;2023-10-31T19:36:07;21.40;50.10
83098;DHT22;72971;47.204;8.582;2023-10-31T19:41:09;21.40;50.70
83098;DHT22;72971;47.204;8.582;2023-10-31T19:46:12;21.40;50.10
83098;DHT22;72971;47.204;8.582;2023-10-31T19:51:15;21.50;50.10
83098;DHT22;72971;47.204;8.582;2023-10-31T19:56:19;21.40;50.00
83098;DHT22;72971;47.204;8.582;2023-10-31T20:01:22;21.40;50.00
83098;DHT22;72971;47.204;8.582;2023-10-31T20:06:25;21.40;50.00
83098;DHT22;72971;47.204;8.582;2023-10-31T20:11:28;21.40;50.10
83098;DHT22;72971;47.204;8.582;2023-10-31T20:16:30;21.50;50.10
83098;DHT22;72971;47.204;8.582;2023-10-31T20:21:33;21.40;50.00
83098;DHT22;72971;47.204;8.582;2023-10-31T20:26:38;21.40;50.00
83098;DHT22;72971;47.204;8.582;2023-10-31T20:31:42;21.40;50.10
83098;DHT22;72971;47.204;8.582;2023-10-31T20:36:44;21.40;50.00
83098;DHT22;72971;47.204;8.582;2023-10-31T20:41:47;21.40;50.00
83098;DHT22;72971;47.204;8.582;2023-10-31T20:46:49;21.40;50.00
83098;DHT22;72971;47.204;8.582;2023-10-31T20:51:53;21.40;50.00
83098;DHT22;72971;47.204;8.582;2023-10-31T20:56:56;21.40;50.00
83098;DHT22;72971;47.204;8.582;2023-10-31T21:01:59;21.40;50.00
83098;DHT22;72971;47.204;8.582;2023-10-31T21:07:02;21.40;50.00
83098;DHT22;72971;47.204;8.582;2023-10-31T21:12:05;21.40;49.90
83098;DHT22;72971;47.204;8.582;2023-10-31T21:17:08;21.40;50.00
83098;DHT22;72971;47.204;8.582;2023-10-31T21:22:11;21.40;49.90
83098;DHT22;72971;47.204;8.582;2023-10-31T21:27:13;21.40;49.90
83098;DHT22;72971;47.204;8.582;2023-10-31T21:32:16;21.40;50.00
83098;DHT22;72971;47.204;8.582;2023-10-31T21:37:19;21.40;49.90
83098;DHT22;72971;47.204;8.582;2023-10-31T21:42:21;21.40;49.90
83098;DHT22;72971;47.204;8.582;2023-10-31T21:47:24;21.40;50.00
83098;DHT22;72971;47.204;8.582;2023-10-31T21:52:28;21.40;49.90
83098;DHT22;72971;47.204;8.582;2023-10-31T21:57:30;21.40;49.90
83098;DHT22;72971;47.204;8.582;2023-10-31T22:02:36;21.40;49.90
83098;DHT22;72971;47.204;8.582;2023-10-31T22:07:39;21.40;49.90
83098;DHT22;72971;47.204;8.582;2023-10-31T22:12:41;21.40;49.90
83098;DHT22;72971;47.204;8.582;2023-10-31T22:17:45;21.40;49.90
83098;DHT22;72971;47.204;8.582;2023-10-31T22:22:48;21.40;49.90
83098;DHT22;72971;47.204;8.582;2023-10-31T22:27:50;21.40;49.80
83098;DHT22;72971;47.204;8.582;2023-10-31T22:32:53;21.40;49.80
83098;DHT22;72971;47.204;8.582;2023-10-31T22:37:56;21.30;49.80
83098;DHT22;72971;47.204;8.582;2023-10-31T22:42:58;21.40;49.90
83098;DHT22;72971;47.204;8.582;2023-10-31T22:48:01;21.30;49.80
83098;DHT22;72971;47.204;8.582;2023-10-31T22:53:04;21.30;49.80
83098;DHT22;72971;47.204;8.582;2023-10-31T22:58:06;21.30;49.80
83098;DHT22;72971;47.204;8.582;2023-10-31T23:03:11;21.30;49.80
83098;DHT22;72971;47.204;8.582;2023-10-31T23:08:13;21.30;49.80
83098;DHT22;72971;47.204;8.582;2023-10-31T23:13:16;21.30;49.80
83098;DHT22;72971;47.204;8.582;2023-10-31T23:18:18;21.30;49.80
83098;DHT22;72971;47.204;8.582;2023-10-31T23:23:21;21.30;49.80
83098;DHT22;72971;47.204;8.582;2023-10-31T23:28:25;21.30;49.80
83098;DHT22;72971;47.204;8.582;2023-10-31T23:33:27;21.30;49.80
83098;DHT22;72971;47.204;8.582;2023-10-31T23:38:30;21.30;49.80
83098;DHT22;72971;47.204;8.582;2023-10-31T23:43:32;21.30;49.80
83098;DHT22;72971;47.204;8.582;2023-10-31T23:48:35;21.30;49.80
83098;DHT22;72971;47.204;8.582;2023-10-31T23:53:37;21.30;49.70
83098;DHT22;72971;47.204;8.582;2023-10-31T23:58:40;21.30;49.70
